sensor_id;sensor_type;location;lat;lon;timestamp;P1;durP1;ratioP1;P2;durP2;ratioP2
54921;SDS011;40824;45.116;21.296;2022-08-01T00:00:37;3.22;;;2.25;;
54921;SDS011;40824;45.116;21.296;2022-08-01T00:03:03;4.57;;;2.28;;
54921;SDS011;40824;45.116;21.296;2022-08-01T00:05:29;4.53;;;2.42;;
54921;SDS011;40824;45.116;21.296;2022-08-01T00:07:58;5.20;;;2.15;;
54921;SDS011;40824;45.116;21.296;2022-08-01T00:10:29;4.95;;;2.28;;
54921;SDS011;40824;45.116;21.296;2022-08-01T00:12:55;4.10;;;2.33;;
54921;SDS011;40824;45.116;21.296;2022-08-01T00:15:25;5.82;;;2.58;;
54921;SDS011;40824;45.116;21.296;2022-08-01T00:17:51;3.67;;;2.20;;
54921;SDS011;40824;45.116;21.296;2022-08-01T00:20:17;3.50;;;2.15;;
54921;SDS011;40824;45.116;21.296;2022-08-01T00:22:43;3.58;;;2.10;;
54921;SDS011;40824;45.116;21.296;2022-08-01T00:25:10;4.63;;;2.50;;
54921;SDS011;40824;45.116;21.296;2022-08-01T00:27:36;3.78;;;2.20;;
54921;SDS011;40824;45.116;21.296;2022-08-01T00:30:02;3.67;;;2.53;;
54921;SDS011;40824;45.116;21.296;2022-08-01T00:32:30;4.65;;;2.63;;
54921;SDS011;40824;45.116;21.296;2022-08-01T00:34:56;4.70;;;2.50;;
54921;SDS011;40824;45.116;21.296;2022-08-01T00:37:22;8.98;;;2.67;;
54921;SDS011;40824;45.116;21.296;2022-08-01T00:39:48;9.88;;;2.95;;
54921;SDS011;40824;45.116;21.296;2022-08-01T00:42:15;4.72;;;2.58;;
54921;SDS011;40824;45.116;21.296;2022-08-01T00:44:41;3.10;;;2.15;;
54921;SDS011;40824;45.116;21.296;2022-08-01T00:47:07;6.55;;;2.20;;
54921;SDS011;40824;45.116;21.296;2022-08-01T00:49:33;4.38;;;2.20;;
54921;SDS011;40824;45.116;21.296;2022-08-01T00:52:00;5.32;;;2.50;;
54921;SDS011;40824;45.116;21.296;2022-08-01T00:54:31;4.57;;;2.42;;
54921;SDS011;40824;45.116;21.296;2022-08-01T00:56:57;5.85;;;2.70;;
54921;SDS011;40824;45.116;21.296;2022-08-01T00:59:23;4.22;;;2.45;;
54921;SDS011;40824;45.116;21.296;2022-08-01T01:01:52;3.50;;;2.40;;
54921;SDS011;40824;45.116;21.296;2022-08-01T01:04:23;3.00;;;2.10;;
54921;SDS011;40824;45.116;21.296;2022-08-01T01:09:33;4.15;;;2.40;;
54921;SDS011;40824;45.116;21.296;2022-08-01T01:16:57;3.30;;;2.50;;
54921;SDS011;40824;45.116;21.296;2022-08-01T01:19:28;4.20;;;2.30;;
54921;SDS011;40824;45.116;21.296;2022-08-01T01:27:42;5.43;;;2.40;;
54921;SDS011;40824;45.116;21.296;2022-08-01T01:30:11;4.65;;;2.70;;
54921;SDS011;40824;45.116;21.296;2022-08-01T01:32:43;5.47;;;2.58;;
54921;SDS011;40824;45.116;21.296;2022-08-01T01:35:29;4.95;;;2.28;;
54921;SDS011;40824;45.116;21.296;2022-08-01T01:37:58;3.22;;;2.00;;
54921;SDS011;40824;45.116;21.296;2022-08-01T01:40:26;3.38;;;2.10;;
54921;SDS011;40824;45.116;21.296;2022-08-01T01:42:53;5.20;;;2.35;;
54921;SDS011;40824;45.116;21.296;2022-08-01T01:45:21;4.90;;;2.47;;
54921;SDS011;40824;45.116;21.296;2022-08-01T01:47:49;7.13;;;2.50;;
54921;SDS011;40824;45.116;21.296;2022-08-01T01:50:15;5.03;;;2.78;;
54921;SDS011;40824;45.116;21.296;2022-08-01T01:52:43;5.35;;;2.33;;
54921;SDS011;40824;45.116;21.296;2022-08-01T01:55:10;4.22;;;2.38;;
54921;SDS011;40824;45.116;21.296;2022-08-01T01:57:38;6.13;;;2.47;;
54921;SDS011;40824;45.116;21.296;2022-08-01T02:00:04;4.18;;;2.50;;
54921;SDS011;40824;45.116;21.296;2022-08-01T02:02:32;5.75;;;3.00;;
54921;SDS011;40824;45.116;21.296;2022-08-01T02:04:59;7.60;;;2.70;;
54921;SDS011;40824;45.116;21.296;2022-08-01T02:07:28;5.07;;;2.90;;
54921;SDS011;40824;45.116;21.296;2022-08-01T02:09:56;4.70;;;2.30;;
54921;SDS011;40824;45.116;21.296;2022-08-01T02:12:23;4.10;;;2.70;;
54921;SDS011;40824;45.116;21.296;2022-08-01T02:14:50;3.92;;;2.67;;
54921;SDS011;40824;45.116;21.296;2022-08-01T02:17:18;5.68;;;2.22;;
54921;SDS011;40824;45.116;21.296;2022-08-01T02:19:45;4.20;;;2.60;;
54921;SDS011;40824;45.116;21.296;2022-08-01T02:22:25;5.15;;;2.60;;
54921;SDS011;40824;45.116;21.296;2022-08-01T02:24:53;4.85;;;2.97;;
54921;SDS011;40824;45.116;21.296;2022-08-01T02:27:24;6.70;;;2.63;;
54921;SDS011;40824;45.116;21.296;2022-08-01T02:29:53;6.05;;;2.67;;
54921;SDS011;40824;45.116;21.296;2022-08-01T02:32:24;7.30;;;2.60;;
54921;SDS011;40824;45.116;21.296;2022-08-01T02:34:51;6.00;;;2.70;;
54921;SDS011;40824;45.116;21.296;2022-08-01T02:37:18;4.22;;;2.85;;
54921;SDS011;40824;45.116;21.296;2022-08-01T02:39:47;5.88;;;2.50;;
54921;SDS011;40824;45.116;21.296;2022-08-01T02:42:14;4.10;;;2.65;;
54921;SDS011;40824;45.116;21.296;2022-08-01T02:44:41;10.77;;;3.67;;
54921;SDS011;40824;45.116;21.296;2022-08-01T02:47:08;7.70;;;2.35;;
54921;SDS011;40824;45.116;21.296;2022-08-01T02:49:36;4.47;;;2.65;;
54921;SDS011;40824;45.116;21.296;2022-08-01T02:52:08;7.22;;;3.05;;
54921;SDS011;40824;45.116;21.296;2022-08-01T02:54:36;5.88;;;2.58;;
54921;SDS011;40824;45.116;21.296;2022-08-01T02:57:03;3.92;;;2.58;;
54921;SDS011;40824;45.116;21.296;2022-08-01T02:59:31;5.10;;;3.30;;
54921;SDS011;40824;45.116;21.296;2022-08-01T03:01:58;4.75;;;2.58;;
54921;SDS011;40824;45.116;21.296;2022-08-01T03:04:25;4.25;;;2.70;;
54921;SDS011;40824;45.116;21.296;2022-08-01T03:06:52;5.63;;;2.92;;
54921;SDS011;40824;45.116;21.296;2022-08-01T03:09:19;5.60;;;2.90;;
54921;SDS011;40824;45.116;21.296;2022-08-01T03:11:47;6.40;;;2.53;;
54921;SDS011;40824;45.116;21.296;2022-08-01T03:14:14;4.43;;;2.42;;
54921;SDS011;40824;45.116;21.296;2022-08-01T03:16:42;3.90;;;2.47;;
54921;SDS011;40824;45.116;21.296;2022-08-01T03:19:11;4.07;;;2.50;;
54921;SDS011;40824;45.116;21.296;2022-08-01T03:21:38;5.05;;;2.85;;
54921;SDS011;40824;45.116;21.296;2022-08-01T03:24:05;5.68;;;2.63;;
54921;SDS011;40824;45.116;21.296;2022-08-01T03:26:33;5.25;;;2.95;;
54921;SDS011;40824;45.116;21.296;2022-08-01T03:29:05;4.75;;;2.97;;
54921;SDS011;40824;45.116;21.296;2022-08-01T03:31:32;3.38;;;2.33;;
54921;SDS011;40824;45.116;21.296;2022-08-01T03:33:59;4.78;;;2.60;;
54921;SDS011;40824;45.116;21.296;2022-08-01T03:36:26;7.30;;;3.10;;
54921;SDS011;40824;45.116;21.296;2022-08-01T03:38:54;5.45;;;2.88;;
54921;SDS011;40824;45.116;21.296;2022-08-01T03:41:27;3.78;;;2.58;;
54921;SDS011;40824;45.116;21.296;2022-08-01T03:43:56;5.97;;;2.80;;
54921;SDS011;40824;45.116;21.296;2022-08-01T03:46:26;8.65;;;3.08;;
54921;SDS011;40824;45.116;21.296;2022-08-01T03:48:54;6.80;;;2.80;;
54921;SDS011;40824;45.116;21.296;2022-08-01T03:51:21;4.65;;;2.60;;
54921;SDS011;40824;45.116;21.296;2022-08-01T03:53:48;3.55;;;2.40;;
54921;SDS011;40824;45.116;21.296;2022-08-01T03:56:16;4.63;;;2.90;;
54921;SDS011;40824;45.116;21.296;2022-08-01T03:58:46;5.72;;;2.55;;
54921;SDS011;40824;45.116;21.296;2022-08-01T04:01:13;3.78;;;2.30;;
54921;SDS011;40824;45.116;21.296;2022-08-01T04:03:39;3.88;;;2.50;;
54921;SDS011;40824;45.116;21.296;2022-08-01T04:06:06;7.93;;;2.58;;
54921;SDS011;40824;45.116;21.296;2022-08-01T04:08:38;3.83;;;2.40;;
54921;SDS011;40824;45.116;21.296;2022-08-01T04:11:05;4.30;;;2.60;;
54921;SDS011;40824;45.116;21.296;2022-08-01T04:13:32;4.10;;;2.50;;
54921;SDS011;40824;45.116;21.296;2022-08-01T04:15:59;6.53;;;2.60;;
54921;SDS011;40824;45.116;21.296;2022-08-01T04:18:25;3.10;;;2.28;;
54921;SDS011;40824;45.116;21.296;2022-08-01T04:20:51;5.30;;;2.60;;
54921;SDS011;40824;45.116;21.296;2022-08-01T04:23:18;4.93;;;2.45;;
54921;SDS011;40824;45.116;21.296;2022-08-01T04:25:46;3.70;;;2.45;;
54921;SDS011;40824;45.116;21.296;2022-08-01T04:28:13;5.53;;;2.40;;
54921;SDS011;40824;45.116;21.296;2022-08-01T04:30:43;4.82;;;2.80;;
54921;SDS011;40824;45.116;21.296;2022-08-01T04:33:09;4.05;;;2.60;;
54921;SDS011;40824;45.116;21.296;2022-08-01T04:35:37;4.25;;;2.47;;
54921;SDS011;40824;45.116;21.296;2022-08-01T04:38:05;4.32;;;2.30;;
54921;SDS011;40824;45.116;21.296;2022-08-01T04:40:33;5.07;;;2.92;;
54921;SDS011;40824;45.116;21.296;2022-08-01T04:43:01;4.43;;;2.38;;
54921;SDS011;40824;45.116;21.296;2022-08-01T04:45:27;3.75;;;2.60;;
54921;SDS011;40824;45.116;21.296;2022-08-01T04:47:53;4.47;;;2.75;;
54921;SDS011;40824;45.116;21.296;2022-08-01T04:50:20;3.78;;;2.70;;
54921;SDS011;40824;45.116;21.296;2022-08-01T04:52:49;4.97;;;2.70;;
54921;SDS011;40824;45.116;21.296;2022-08-01T04:55:16;6.63;;;2.88;;
54921;SDS011;40824;45.116;21.296;2022-08-01T04:57:46;5.72;;;3.17;;
54921;SDS011;40824;45.116;21.296;2022-08-01T05:00:13;3.78;;;2.75;;
54921;SDS011;40824;45.116;21.296;2022-08-01T05:02:41;4.50;;;2.72;;
54921;SDS011;40824;45.116;21.296;2022-08-01T05:05:07;4.65;;;2.60;;
54921;SDS011;40824;45.116;21.296;2022-08-01T05:07:35;5.15;;;2.60;;
54921;SDS011;40824;45.116;21.296;2022-08-01T05:10:04;4.47;;;2.70;;
54921;SDS011;40824;45.116;21.296;2022-08-01T05:12:30;4.18;;;2.83;;
54921;SDS011;40824;45.116;21.296;2022-08-01T05:15:00;7.05;;;2.83;;
54921;SDS011;40824;45.116;21.296;2022-08-01T05:17:27;4.70;;;2.75;;
54921;SDS011;40824;45.116;21.296;2022-08-01T05:19:53;4.80;;;2.42;;
54921;SDS011;40824;45.116;21.296;2022-08-01T05:22:19;4.40;;;2.78;;
54921;SDS011;40824;45.116;21.296;2022-08-01T05:24:45;3.97;;;2.60;;
54921;SDS011;40824;45.116;21.296;2022-08-01T05:27:12;4.32;;;2.95;;
54921;SDS011;40824;45.116;21.296;2022-08-01T05:29:38;5.57;;;3.10;;
54921;SDS011;40824;45.116;21.296;2022-08-01T05:32:04;4.28;;;2.70;;
54921;SDS011;40824;45.116;21.296;2022-08-01T05:34:31;7.50;;;2.83;;
54921;SDS011;40824;45.116;21.296;2022-08-01T05:36:57;5.00;;;2.65;;
54921;SDS011;40824;45.116;21.296;2022-08-01T05:39:23;4.80;;;2.13;;
54921;SDS011;40824;45.116;21.296;2022-08-01T05:41:49;4.28;;;2.63;;
54921;SDS011;40824;45.116;21.296;2022-08-01T05:44:15;8.02;;;2.80;;
54921;SDS011;40824;45.116;21.296;2022-08-01T05:46:41;6.53;;;2.80;;
54921;SDS011;40824;45.116;21.296;2022-08-01T05:49:08;8.57;;;3.00;;
54921;SDS011;40824;45.116;21.296;2022-08-01T05:51:34;6.93;;;2.97;;
54921;SDS011;40824;45.116;21.296;2022-08-01T05:54:00;7.78;;;3.10;;
54921;SDS011;40824;45.116;21.296;2022-08-01T05:56:27;6.63;;;2.42;;
54921;SDS011;40824;45.116;21.296;2022-08-01T05:58:55;9.60;;;2.78;;
54921;SDS011;40824;45.116;21.296;2022-08-01T06:01:22;9.10;;;2.60;;
54921;SDS011;40824;45.116;21.296;2022-08-01T06:03:48;9.93;;;2.70;;
54921;SDS011;40824;45.116;21.296;2022-08-01T06:06:14;4.30;;;2.70;;
54921;SDS011;40824;45.116;21.296;2022-08-01T06:08:41;5.13;;;2.47;;
54921;SDS011;40824;45.116;21.296;2022-08-01T06:11:07;5.70;;;2.53;;
54921;SDS011;40824;45.116;21.296;2022-08-01T06:13:33;6.32;;;2.80;;
54921;SDS011;40824;45.116;21.296;2022-08-01T06:16:00;4.65;;;2.53;;
54921;SDS011;40824;45.116;21.296;2022-08-01T06:18:26;7.07;;;2.70;;
54921;SDS011;40824;45.116;21.296;2022-08-01T06:20:52;4.97;;;2.70;;
54921;SDS011;40824;45.116;21.296;2022-08-01T06:23:19;4.50;;;2.50;;
54921;SDS011;40824;45.116;21.296;2022-08-01T06:25:45;6.85;;;2.50;;
54921;SDS011;40824;45.116;21.296;2022-08-01T06:28:12;4.78;;;2.60;;
54921;SDS011;40824;45.116;21.296;2022-08-01T06:30:38;4.75;;;2.28;;
54921;SDS011;40824;45.116;21.296;2022-08-01T06:33:04;5.45;;;2.83;;
54921;SDS011;40824;45.116;21.296;2022-08-01T06:35:30;6.97;;;3.65;;
54921;SDS011;40824;45.116;21.296;2022-08-01T06:37:59;4.40;;;2.88;;
54921;SDS011;40824;45.116;21.296;2022-08-01T06:40:24;6.05;;;2.65;;
54921;SDS011;40824;45.116;21.296;2022-08-01T06:42:50;4.50;;;2.20;;
54921;SDS011;40824;45.116;21.296;2022-08-01T06:45:16;4.40;;;2.20;;
54921;SDS011;40824;45.116;21.296;2022-08-01T06:47:43;5.78;;;2.50;;
54921;SDS011;40824;45.116;21.296;2022-08-01T06:50:10;4.20;;;2.35;;
54921;SDS011;40824;45.116;21.296;2022-08-01T06:52:36;4.45;;;2.38;;
54921;SDS011;40824;45.116;21.296;2022-08-01T06:55:03;4.63;;;2.65;;
54921;SDS011;40824;45.116;21.296;2022-08-01T06:57:29;5.05;;;2.53;;
54921;SDS011;40824;45.116;21.296;2022-08-01T06:59:55;3.63;;;2.50;;
54921;SDS011;40824;45.116;21.296;2022-08-01T07:02:21;4.53;;;2.50;;
54921;SDS011;40824;45.116;21.296;2022-08-01T07:04:47;4.38;;;2.20;;
54921;SDS011;40824;45.116;21.296;2022-08-01T07:07:13;4.57;;;2.38;;
54921;SDS011;40824;45.116;21.296;2022-08-01T07:09:39;2.95;;;2.20;;
54921;SDS011;40824;45.116;21.296;2022-08-01T07:12:06;3.47;;;2.60;;
54921;SDS011;40824;45.116;21.296;2022-08-01T07:14:32;3.80;;;2.30;;
54921;SDS011;40824;45.116;21.296;2022-08-01T07:16:58;4.40;;;2.40;;
54921;SDS011;40824;45.116;21.296;2022-08-01T07:19:24;2.60;;;1.75;;
54921;SDS011;40824;45.116;21.296;2022-08-01T07:21:50;4.47;;;2.13;;
54921;SDS011;40824;45.116;21.296;2022-08-01T07:24:15;3.70;;;2.45;;
54921;SDS011;40824;45.116;21.296;2022-08-01T07:26:42;3.60;;;2.38;;
54921;SDS011;40824;45.116;21.296;2022-08-01T07:29:12;4.30;;;2.13;;
54921;SDS011;40824;45.116;21.296;2022-08-01T07:31:38;4.50;;;2.35;;
54921;SDS011;40824;45.116;21.296;2022-08-01T07:34:04;3.15;;;2.03;;
54921;SDS011;40824;45.116;21.296;2022-08-01T07:36:29;7.40;;;2.65;;
54921;SDS011;40824;45.116;21.296;2022-08-01T07:38:55;2.88;;;2.10;;
54921;SDS011;40824;45.116;21.296;2022-08-01T07:41:21;3.22;;;2.20;;
54921;SDS011;40824;45.116;21.296;2022-08-01T07:43:47;2.95;;;2.20;;
54921;SDS011;40824;45.116;21.296;2022-08-01T07:46:14;4.07;;;2.78;;
54921;SDS011;40824;45.116;21.296;2022-08-01T07:48:40;4.53;;;2.40;;
54921;SDS011;40824;45.116;21.296;2022-08-01T07:51:06;2.80;;;2.08;;
54921;SDS011;40824;45.116;21.296;2022-08-01T07:53:33;3.90;;;2.15;;
54921;SDS011;40824;45.116;21.296;2022-08-01T07:55:59;2.80;;;1.90;;
54921;SDS011;40824;45.116;21.296;2022-08-01T07:58:24;3.60;;;2.28;;
54921;SDS011;40824;45.116;21.296;2022-08-01T08:00:50;3.72;;;2.13;;
54921;SDS011;40824;45.116;21.296;2022-08-01T08:03:16;5.35;;;2.20;;
54921;SDS011;40824;45.116;21.296;2022-08-01T08:05:42;3.47;;;2.28;;
54921;SDS011;40824;45.116;21.296;2022-08-01T08:08:08;2.90;;;2.15;;
54921;SDS011;40824;45.116;21.296;2022-08-01T08:10:35;3.60;;;1.70;;
54921;SDS011;40824;45.116;21.296;2022-08-01T08:13:01;3.92;;;1.80;;
54921;SDS011;40824;45.116;21.296;2022-08-01T08:15:28;3.10;;;2.20;;
54921;SDS011;40824;45.116;21.296;2022-08-01T08:17:54;3.85;;;2.08;;
54921;SDS011;40824;45.116;21.296;2022-08-01T08:20:19;3.90;;;2.05;;
54921;SDS011;40824;45.116;21.296;2022-08-01T08:22:50;2.72;;;1.70;;
54921;SDS011;40824;45.116;21.296;2022-08-01T08:25:16;3.33;;;2.10;;
54921;SDS011;40824;45.116;21.296;2022-08-01T08:27:44;3.28;;;2.10;;
54921;SDS011;40824;45.116;21.296;2022-08-01T08:30:11;3.60;;;2.15;;
54921;SDS011;40824;45.116;21.296;2022-08-01T08:32:37;3.47;;;2.25;;
54921;SDS011;40824;45.116;21.296;2022-08-01T08:35:04;3.33;;;2.10;;
54921;SDS011;40824;45.116;21.296;2022-08-01T08:37:31;3.42;;;2.05;;
54921;SDS011;40824;45.116;21.296;2022-08-01T08:39:57;3.83;;;2.20;;
54921;SDS011;40824;45.116;21.296;2022-08-01T08:42:22;4.15;;;2.10;;
54921;SDS011;40824;45.116;21.296;2022-08-01T08:44:48;3.05;;;2.20;;
54921;SDS011;40824;45.116;21.296;2022-08-01T08:47:14;3.22;;;2.17;;
54921;SDS011;40824;45.116;21.296;2022-08-01T08:49:42;3.00;;;1.90;;
54921;SDS011;40824;45.116;21.296;2022-08-01T08:52:09;3.63;;;2.15;;
54921;SDS011;40824;45.116;21.296;2022-08-01T08:54:37;3.45;;;2.28;;
54921;SDS011;40824;45.116;21.296;2022-08-01T08:57:05;2.92;;;2.03;;
54921;SDS011;40824;45.116;21.296;2022-08-01T08:59:32;3.38;;;2.20;;
54921;SDS011;40824;45.116;21.296;2022-08-01T09:02:02;2.40;;;1.80;;
54921;SDS011;40824;45.116;21.296;2022-08-01T09:04:29;3.08;;;1.90;;
54921;SDS011;40824;45.116;21.296;2022-08-01T09:06:55;2.38;;;1.70;;
54921;SDS011;40824;45.116;21.296;2022-08-01T09:09:22;4.25;;;2.13;;
54921;SDS011;40824;45.116;21.296;2022-08-01T09:11:48;3.45;;;2.20;;
54921;SDS011;40824;45.116;21.296;2022-08-01T09:14:15;3.00;;;2.00;;
54921;SDS011;40824;45.116;21.296;2022-08-01T09:19:23;5.53;;;1.90;;
54921;SDS011;40824;45.116;21.296;2022-08-01T09:22:00;5.03;;;2.03;;
54921;SDS011;40824;45.116;21.296;2022-08-01T09:24:28;3.13;;;1.75;;
54921;SDS011;40824;45.116;21.296;2022-08-01T09:26:56;5.60;;;2.00;;
54921;SDS011;40824;45.116;21.296;2022-08-01T09:29:29;9.90;;;2.17;;
54921;SDS011;40824;45.116;21.296;2022-08-01T09:31:59;7.07;;;2.28;;
54921;SDS011;40824;45.116;21.296;2022-08-01T09:34:31;8.23;;;2.13;;
54921;SDS011;40824;45.116;21.296;2022-08-01T09:36:58;4.88;;;2.13;;
54921;SDS011;40824;45.116;21.296;2022-08-01T09:39:27;6.10;;;2.17;;
54921;SDS011;40824;45.116;21.296;2022-08-01T09:41:58;4.55;;;2.10;;
54921;SDS011;40824;45.116;21.296;2022-08-01T09:44:43;7.35;;;2.15;;
54921;SDS011;40824;45.116;21.296;2022-08-01T09:47:10;3.92;;;2.10;;
54921;SDS011;40824;45.116;21.296;2022-08-01T09:49:37;4.03;;;2.00;;
54921;SDS011;40824;45.116;21.296;2022-08-01T09:52:15;7.35;;;1.90;;
54921;SDS011;40824;45.116;21.296;2022-08-01T09:54:43;6.20;;;1.90;;
54921;SDS011;40824;45.116;21.296;2022-08-01T09:57:17;7.50;;;2.00;;
54921;SDS011;40824;45.116;21.296;2022-08-01T09:59:45;4.28;;;2.13;;
54921;SDS011;40824;45.116;21.296;2022-08-01T10:02:12;4.95;;;1.80;;
54921;SDS011;40824;45.116;21.296;2022-08-01T10:04:50;5.05;;;1.95;;
54921;SDS011;40824;45.116;21.296;2022-08-01T10:07:16;3.45;;;2.10;;
54921;SDS011;40824;45.116;21.296;2022-08-01T10:09:43;3.40;;;2.13;;
54921;SDS011;40824;45.116;21.296;2022-08-01T10:12:11;5.05;;;2.00;;
54921;SDS011;40824;45.116;21.296;2022-08-01T10:14:39;5.78;;;2.50;;
54921;SDS011;40824;45.116;21.296;2022-08-01T10:17:07;2.72;;;1.70;;
54921;SDS011;40824;45.116;21.296;2022-08-01T10:19:35;4.32;;;1.88;;
54921;SDS011;40824;45.116;21.296;2022-08-01T10:22:08;4.35;;;1.80;;
54921;SDS011;40824;45.116;21.296;2022-08-01T10:24:36;3.92;;;2.22;;
54921;SDS011;40824;45.116;21.296;2022-08-01T10:27:04;4.22;;;2.00;;
54921;SDS011;40824;45.116;21.296;2022-08-01T10:32:05;3.80;;;1.90;;
54921;SDS011;40824;45.116;21.296;2022-08-01T10:34:34;3.85;;;1.95;;
54921;SDS011;40824;45.116;21.296;2022-08-01T10:37:05;4.55;;;2.00;;
54921;SDS011;40824;45.116;21.296;2022-08-01T10:39:32;4.15;;;2.00;;
54921;SDS011;40824;45.116;21.296;2022-08-01T10:41:58;4.57;;;2.35;;
54921;SDS011;40824;45.116;21.296;2022-08-01T10:44:27;3.28;;;1.90;;
54921;SDS011;40824;45.116;21.296;2022-08-01T10:46:56;3.17;;;2.05;;
54921;SDS011;40824;45.116;21.296;2022-08-01T10:49:24;2.63;;;1.75;;
54921;SDS011;40824;45.116;21.296;2022-08-01T10:51:53;2.80;;;2.00;;
54921;SDS011;40824;45.116;21.296;2022-08-01T10:54:19;3.05;;;1.58;;
54921;SDS011;40824;45.116;21.296;2022-08-01T10:56:46;3.20;;;1.98;;
54921;SDS011;40824;45.116;21.296;2022-08-01T10:59:23;3.00;;;1.75;;
54921;SDS011;40824;45.116;21.296;2022-08-01T11:04:31;4.40;;;1.85;;
54921;SDS011;40824;45.116;21.296;2022-08-01T11:09:31;2.60;;;1.63;;
54921;SDS011;40824;45.116;21.296;2022-08-01T11:12:04;8.75;;;2.05;;
54921;SDS011;40824;45.116;21.296;2022-08-01T11:14:33;4.78;;;1.88;;
54921;SDS011;40824;45.116;21.296;2022-08-01T11:23:22;5.90;;;1.73;;
54921;SDS011;40824;45.116;21.296;2022-08-01T11:25:23;4.03;;;2.10;;
54921;SDS011;40824;45.116;21.296;2022-08-01T11:28:14;2.75;;;1.60;;
54921;SDS011;40824;45.116;21.296;2022-08-01T11:30:36;3.97;;;2.10;;
54921;SDS011;40824;45.116;21.296;2022-08-01T11:33:02;3.00;;;1.63;;
54921;SDS011;40824;45.116;21.296;2022-08-01T11:35:28;4.05;;;1.88;;
54921;SDS011;40824;45.116;21.296;2022-08-01T11:37:54;5.05;;;1.90;;
54921;SDS011;40824;45.116;21.296;2022-08-01T11:42:51;3.65;;;1.70;;
54921;SDS011;40824;45.116;21.296;2022-08-01T11:45:52;3.70;;;1.65;;
54921;SDS011;40824;45.116;21.296;2022-08-01T11:48:20;3.05;;;1.90;;
54921;SDS011;40824;45.116;21.296;2022-08-01T11:50:47;10.38;;;2.03;;
54921;SDS011;40824;45.116;21.296;2022-08-01T11:53:13;3.13;;;1.77;;
54921;SDS011;40824;45.116;21.296;2022-08-01T11:55:46;3.20;;;1.95;;
54921;SDS011;40824;45.116;21.296;2022-08-01T11:58:25;3.30;;;1.85;;
54921;SDS011;40824;45.116;21.296;2022-08-01T12:00:55;3.63;;;1.60;;
54921;SDS011;40824;45.116;21.296;2022-08-01T12:03:28;4.45;;;1.75;;
54921;SDS011;40824;45.116;21.296;2022-08-01T12:08:26;4.25;;;1.70;;
54921;SDS011;40824;45.116;21.296;2022-08-01T12:10:53;7.65;;;1.70;;
54921;SDS011;40824;45.116;21.296;2022-08-01T12:13:19;7.13;;;1.80;;
54921;SDS011;40824;45.116;21.296;2022-08-01T12:15:46;2.72;;;1.65;;
54921;SDS011;40824;45.116;21.296;2022-08-01T12:18:12;4.18;;;1.88;;
54921;SDS011;40824;45.116;21.296;2022-08-01T12:20:39;6.75;;;1.92;;
54921;SDS011;40824;45.116;21.296;2022-08-01T12:23:07;3.60;;;1.60;;
54921;SDS011;40824;45.116;21.296;2022-08-01T12:25:33;6.80;;;1.70;;
54921;SDS011;40824;45.116;21.296;2022-08-01T12:28:01;3.00;;;1.60;;
54921;SDS011;40824;45.116;21.296;2022-08-01T12:30:27;4.60;;;1.65;;
54921;SDS011;40824;45.116;21.296;2022-08-01T12:32:55;4.18;;;1.80;;
54921;SDS011;40824;45.116;21.296;2022-08-01T12:35:22;3.25;;;1.58;;
54921;SDS011;40824;45.116;21.296;2022-08-01T12:37:50;2.90;;;1.67;;
54921;SDS011;40824;45.116;21.296;2022-08-01T12:40:20;3.50;;;1.88;;
54921;SDS011;40824;45.116;21.296;2022-08-01T12:42:48;2.35;;;1.63;;
54921;SDS011;40824;45.116;21.296;2022-08-01T12:45:16;3.00;;;1.75;;
54921;SDS011;40824;45.116;21.296;2022-08-01T12:47:43;2.63;;;2.00;;
54921;SDS011;40824;45.116;21.296;2022-08-01T12:50:11;4.97;;;1.70;;
54921;SDS011;40824;45.116;21.296;2022-08-01T12:52:38;3.03;;;1.70;;
54921;SDS011;40824;45.116;21.296;2022-08-01T12:57:31;2.05;;;1.65;;
54921;SDS011;40824;45.116;21.296;2022-08-01T13:02:35;2.40;;;1.55;;
54921;SDS011;40824;45.116;21.296;2022-08-01T13:05:02;3.95;;;1.60;;
54921;SDS011;40824;45.116;21.296;2022-08-01T13:07:38;2.97;;;1.50;;
54921;SDS011;40824;45.116;21.296;2022-08-01T13:10:05;2.25;;;1.40;;
54921;SDS011;40824;45.116;21.296;2022-08-01T13:12:32;2.35;;;1.60;;
54921;SDS011;40824;45.116;21.296;2022-08-01T13:14:58;3.17;;;1.88;;
54921;SDS011;40824;45.116;21.296;2022-08-01T13:17:31;3.03;;;1.75;;
54921;SDS011;40824;45.116;21.296;2022-08-01T13:19:57;2.80;;;1.80;;
54921;SDS011;40824;45.116;21.296;2022-08-01T13:22:32;2.92;;;1.45;;
54921;SDS011;40824;45.116;21.296;2022-08-01T13:25:15;2.40;;;1.48;;
54921;SDS011;40824;45.116;21.296;2022-08-01T13:27:42;3.63;;;1.57;;
54921;SDS011;40824;45.116;21.296;2022-08-01T13:30:18;2.42;;;1.67;;
54921;SDS011;40824;45.116;21.296;2022-08-01T13:32:56;3.72;;;1.67;;
54921;SDS011;40824;45.116;21.296;2022-08-01T13:35:23;2.08;;;1.50;;
54921;SDS011;40824;45.116;21.296;2022-08-01T13:37:49;2.80;;;1.80;;
54921;SDS011;40824;45.116;21.296;2022-08-01T13:40:22;2.55;;;1.40;;
54921;SDS011;40824;45.116;21.296;2022-08-01T13:42:49;3.47;;;1.60;;
54921;SDS011;40824;45.116;21.296;2022-08-01T13:45:15;2.47;;;1.60;;
54921;SDS011;40824;45.116;21.296;2022-08-01T13:47:41;2.15;;;1.38;;
54921;SDS011;40824;45.116;21.296;2022-08-01T13:50:08;4.00;;;1.60;;
54921;SDS011;40824;45.116;21.296;2022-08-01T13:52:34;2.45;;;1.42;;
54921;SDS011;40824;45.116;21.296;2022-08-01T13:55:00;2.78;;;1.55;;
54921;SDS011;40824;45.116;21.296;2022-08-01T13:57:26;3.78;;;1.42;;
54921;SDS011;40824;45.116;21.296;2022-08-01T13:59:53;3.22;;;1.73;;
54921;SDS011;40824;45.116;21.296;2022-08-01T14:02:19;2.75;;;1.70;;
54921;SDS011;40824;45.116;21.296;2022-08-01T14:04:45;2.22;;;1.50;;
54921;SDS011;40824;45.116;21.296;2022-08-01T14:07:11;2.58;;;1.50;;
54921;SDS011;40824;45.116;21.296;2022-08-01T14:09:38;5.68;;;1.75;;
54921;SDS011;40824;45.116;21.296;2022-08-01T14:12:04;2.58;;;1.88;;
54921;SDS011;40824;45.116;21.296;2022-08-01T14:14:30;4.03;;;1.60;;
54921;SDS011;40824;45.116;21.296;2022-08-01T14:16:56;4.15;;;1.60;;
54921;SDS011;40824;45.116;21.296;2022-08-01T14:19:22;2.88;;;1.63;;
54921;SDS011;40824;45.116;21.296;2022-08-01T14:21:48;2.08;;;1.50;;
54921;SDS011;40824;45.116;21.296;2022-08-01T14:24:17;2.95;;;1.70;;
54921;SDS011;40824;45.116;21.296;2022-08-01T14:26:43;2.67;;;1.58;;
54921;SDS011;40824;45.116;21.296;2022-08-01T14:29:09;3.28;;;1.60;;
54921;SDS011;40824;45.116;21.296;2022-08-01T14:31:35;3.17;;;1.40;;
54921;SDS011;40824;45.116;21.296;2022-08-01T14:34:01;3.83;;;1.88;;
54921;SDS011;40824;45.116;21.296;2022-08-01T14:36:27;3.28;;;1.63;;
54921;SDS011;40824;45.116;21.296;2022-08-01T14:38:54;3.40;;;1.70;;
54921;SDS011;40824;45.116;21.296;2022-08-01T14:41:20;3.47;;;2.10;;
54921;SDS011;40824;45.116;21.296;2022-08-01T14:43:46;3.35;;;1.60;;
54921;SDS011;40824;45.116;21.296;2022-08-01T14:46:12;4.07;;;1.80;;
54921;SDS011;40824;45.116;21.296;2022-08-01T14:48:38;3.83;;;1.40;;
54921;SDS011;40824;45.116;21.296;2022-08-01T14:51:04;3.13;;;2.13;;
54921;SDS011;40824;45.116;21.296;2022-08-01T14:53:32;3.13;;;1.60;;
54921;SDS011;40824;45.116;21.296;2022-08-01T14:56:00;2.30;;;1.60;;
54921;SDS011;40824;45.116;21.296;2022-08-01T14:58:26;4.20;;;2.03;;
54921;SDS011;40824;45.116;21.296;2022-08-01T15:00:52;2.80;;;1.77;;
54921;SDS011;40824;45.116;21.296;2022-08-01T15:03:19;3.08;;;1.65;;
54921;SDS011;40824;45.116;21.296;2022-08-01T15:05:45;3.20;;;2.00;;
54921;SDS011;40824;45.116;21.296;2022-08-01T15:08:11;2.20;;;1.50;;
54921;SDS011;40824;45.116;21.296;2022-08-01T15:10:38;4.35;;;1.67;;
54921;SDS011;40824;45.116;21.296;2022-08-01T15:13:04;3.17;;;1.50;;
54921;SDS011;40824;45.116;21.296;2022-08-01T15:15:30;3.30;;;1.85;;